sensor_id;sensor_type;location;lat;lon;timestamp;P1;durP1;ratioP1;P2;durP2;ratioP2
49962;SDS011;36180;57.678;11.910;2022-12-24T00:00:10;7.07;;;3.90;;
49962;SDS011;36180;57.678;11.910;2022-12-24T00:02:38;7.60;;;3.80;;
49962;SDS011;36180;57.678;11.910;2022-12-24T00:05:05;5.80;;;3.72;;
49962;SDS011;36180;57.678;11.910;2022-12-24T00:07:33;7.18;;;3.90;;
49962;SDS011;36180;57.678;11.910;2022-12-24T00:10:00;4.70;;;3.72;;
49962;SDS011;36180;57.678;11.910;2022-12-24T00:12:27;5.07;;;3.42;;
49962;SDS011;36180;57.678;11.910;2022-12-24T00:14:56;6.35;;;3.60;;
49962;SDS011;36180;57.678;11.910;2022-12-24T00:17:23;6.47;;;3.38;;
49962;SDS011;36180;57.678;11.910;2022-12-24T00:19:50;4.28;;;3.03;;
49962;SDS011;36180;57.678;11.910;2022-12-24T00:22:17;4.32;;;3.33;;
49962;SDS011;36180;57.678;11.910;2022-12-24T00:24:44;4.07;;;2.92;;
49962;SDS011;36180;57.678;11.910;2022-12-24T00:27:12;4.90;;;2.80;;
49962;SDS011;36180;57.678;11.910;2022-12-24T00:29:39;6.53;;;3.05;;
49962;SDS011;36180;57.678;11.910;2022-12-24T00:32:07;6.47;;;3.25;;
49962;SDS011;36180;57.678;11.910;2022-12-24T00:34:34;4.57;;;3.28;;
49962;SDS011;36180;57.678;11.910;2022-12-24T00:37:01;3.58;;;2.63;;
49962;SDS011;36180;57.678;11.910;2022-12-24T00:39:29;7.03;;;3.20;;
49962;SDS011;36180;57.678;11.910;2022-12-24T00:41:56;4.75;;;2.80;;
49962;SDS011;36180;57.678;11.910;2022-12-24T00:44:23;5.90;;;2.72;;
49962;SDS011;36180;57.678;11.910;2022-12-24T00:46:50;5.80;;;2.92;;
49962;SDS011;36180;57.678;11.910;2022-12-24T00:49:19;5.05;;;2.70;;
49962;SDS011;36180;57.678;11.910;2022-12-24T00:51:46;5.25;;;3.28;;
49962;SDS011;36180;57.678;11.910;2022-12-24T00:54:13;7.05;;;3.20;;
49962;SDS011;36180;57.678;11.910;2022-12-24T00:56:40;4.70;;;3.33;;
49962;SDS011;36180;57.678;11.910;2022-12-24T00:59:07;6.00;;;3.45;;
49962;SDS011;36180;57.678;11.910;2022-12-24T01:01:34;5.05;;;3.40;;
49962;SDS011;36180;57.678;11.910;2022-12-24T01:04:01;4.18;;;3.08;;
49962;SDS011;36180;57.678;11.910;2022-12-24T01:06:47;4.35;;;3.05;;
49962;SDS011;36180;57.678;11.910;2022-12-24T01:09:14;3.72;;;3.00;;
49962;SDS011;36180;57.678;11.910;2022-12-24T01:11:41;3.92;;;2.80;;
49962;SDS011;36180;57.678;11.910;2022-12-24T01:14:09;4.20;;;2.90;;
49962;SDS011;36180;57.678;11.910;2022-12-24T01:16:36;5.97;;;3.70;;
49962;SDS011;36180;57.678;11.910;2022-12-24T01:19:03;4.15;;;3.22;;
49962;SDS011;36180;57.678;11.910;2022-12-24T01:21:30;6.88;;;3.85;;
49962;SDS011;36180;57.678;11.910;2022-12-24T01:23:58;6.40;;;4.18;;
49962;SDS011;36180;57.678;11.910;2022-12-24T01:26:25;4.80;;;3.75;;
49962;SDS011;36180;57.678;11.910;2022-12-24T01:28:52;8.82;;;4.28;;
49962;SDS011;36180;57.678;11.910;2022-12-24T01:31:21;7.25;;;4.72;;
49962;SDS011;36180;57.678;11.910;2022-12-24T01:33:48;8.38;;;4.10;;
49962;SDS011;36180;57.678;11.910;2022-12-24T01:36:15;6.85;;;4.38;;
49962;SDS011;36180;57.678;11.910;2022-12-24T01:38:42;6.32;;;4.03;;
49962;SDS011;36180;57.678;11.910;2022-12-24T01:41:15;6.20;;;4.38;;
49962;SDS011;36180;57.678;11.910;2022-12-24T01:44:23;8.32;;;4.15;;
49962;SDS011;36180;57.678;11.910;2022-12-24T01:46:53;4.75;;;4.05;;
49962;SDS011;36180;57.678;11.910;2022-12-24T01:49:22;5.90;;;4.30;;
49962;SDS011;36180;57.678;11.910;2022-12-24T01:51:50;6.60;;;4.25;;
49962;SDS011;36180;57.678;11.910;2022-12-24T01:54:21;7.53;;;4.25;;
49962;SDS011;36180;57.678;11.910;2022-12-24T01:56:51;7.82;;;4.50;;
49962;SDS011;36180;57.678;11.910;2022-12-24T01:59:22;5.75;;;3.78;;
49962;SDS011;36180;57.678;11.910;2022-12-24T02:01:50;7.13;;;4.50;;
49962;SDS011;36180;57.678;11.910;2022-12-24T02:04:23;5.85;;;3.80;;
49962;SDS011;36180;57.678;11.910;2022-12-24T02:06:53;5.25;;;3.80;;
49962;SDS011;36180;57.678;11.910;2022-12-24T02:09:20;5.93;;;4.00;;
49962;SDS011;36180;57.678;11.910;2022-12-24T02:11:48;7.53;;;4.10;;
49962;SDS011;36180;57.678;11.910;2022-12-24T02:14:16;6.88;;;4.13;;
49962;SDS011;36180;57.678;11.910;2022-12-24T02:16:45;7.95;;;4.22;;
49962;SDS011;36180;57.678;11.910;2022-12-24T02:19:24;7.55;;;3.85;;
49962;SDS011;36180;57.678;11.910;2022-12-24T02:22:10;6.43;;;3.90;;
49962;SDS011;36180;57.678;11.910;2022-12-24T02:24:53;5.47;;;3.30;;
49962;SDS011;36180;57.678;11.910;2022-12-24T02:27:31;5.30;;;3.55;;
49962;SDS011;36180;57.678;11.910;2022-12-24T02:30:06;5.70;;;3.33;;
49962;SDS011;36180;57.678;11.910;2022-12-24T02:32:38;4.07;;;3.00;;
49962;SDS011;36180;57.678;11.910;2022-12-24T02:35:11;4.55;;;2.75;;
49962;SDS011;36180;57.678;11.910;2022-12-24T02:37:42;3.95;;;2.50;;
49962;SDS011;36180;57.678;11.910;2022-12-24T02:40:12;4.00;;;2.80;;
49962;SDS011;36180;57.678;11.910;2022-12-24T02:42:43;5.05;;;3.17;;
49962;SDS011;36180;57.678;11.910;2022-12-24T02:45:14;4.80;;;3.28;;
49962;SDS011;36180;57.678;11.910;2022-12-24T02:47:43;5.57;;;2.83;;
49962;SDS011;36180;57.678;11.910;2022-12-24T02:50:12;4.85;;;2.40;;
49962;SDS011;36180;57.678;11.910;2022-12-24T02:52:40;6.00;;;2.40;;
49962;SDS011;36180;57.678;11.910;2022-12-24T02:55:10;3.40;;;2.20;;
49962;SDS011;36180;57.678;11.910;2022-12-24T02:57:42;3.03;;;2.10;;
49962;SDS011;36180;57.678;11.910;2022-12-24T03:00:29;3.78;;;2.10;;
49962;SDS011;36180;57.678;11.910;2022-12-24T03:03:04;3.22;;;1.80;;
49962;SDS011;36180;57.678;11.910;2022-12-24T03:05:40;3.92;;;2.40;;
49962;SDS011;36180;57.678;11.910;2022-12-24T03:08:12;4.30;;;2.10;;
49962;SDS011;36180;57.678;11.910;2022-12-24T03:10:45;4.45;;;2.35;;
49962;SDS011;36180;57.678;11.910;2022-12-24T03:13:15;3.00;;;2.20;;
49962;SDS011;36180;57.678;11.910;2022-12-24T03:15:45;3.50;;;2.45;;
49962;SDS011;36180;57.678;11.910;2022-12-24T03:18:15;2.33;;;1.80;;
49962;SDS011;36180;57.678;11.910;2022-12-24T03:20:45;4.15;;;2.40;;
49962;SDS011;36180;57.678;11.910;2022-12-24T03:23:14;3.40;;;2.40;;
49962;SDS011;36180;57.678;11.910;2022-12-24T03:25:42;4.15;;;2.58;;
49962;SDS011;36180;57.678;11.910;2022-12-24T03:28:10;6.15;;;2.70;;
49962;SDS011;36180;57.678;11.910;2022-12-24T03:30:40;5.28;;;2.65;;
49962;SDS011;36180;57.678;11.910;2022-12-24T03:33:10;5.22;;;2.97;;
49962;SDS011;36180;57.678;11.910;2022-12-24T03:35:38;4.05;;;3.10;;
49962;SDS011;36180;57.678;11.910;2022-12-24T03:38:05;6.30;;;3.17;;
49962;SDS011;36180;57.678;11.910;2022-12-24T03:40:32;3.38;;;2.38;;
49962;SDS011;36180;57.678;11.910;2022-12-24T03:42:59;3.13;;;2.30;;
49962;SDS011;36180;57.678;11.910;2022-12-24T03:45:26;3.85;;;2.30;;
49962;SDS011;36180;57.678;11.910;2022-12-24T03:47:53;3.70;;;2.28;;
49962;SDS011;36180;57.678;11.910;2022-12-24T03:50:22;2.25;;;2.05;;
49962;SDS011;36180;57.678;11.910;2022-12-24T03:52:50;3.17;;;2.15;;
49962;SDS011;36180;57.678;11.910;2022-12-24T03:55:17;2.30;;;1.90;;
49962;SDS011;36180;57.678;11.910;2022-12-24T03:57:44;3.65;;;2.10;;
49962;SDS011;36180;57.678;11.910;2022-12-24T04:00:12;2.95;;;2.10;;
49962;SDS011;36180;57.678;11.910;2022-12-24T04:02:39;2.65;;;2.30;;
49962;SDS011;36180;57.678;11.910;2022-12-24T04:05:07;3.53;;;2.35;;
49962;SDS011;36180;57.678;11.910;2022-12-24T04:07:36;4.55;;;2.70;;
49962;SDS011;36180;57.678;11.910;2022-12-24T04:10:03;2.45;;;2.00;;
49962;SDS011;36180;57.678;11.910;2022-12-24T04:12:30;3.50;;;2.45;;
49962;SDS011;36180;57.678;11.910;2022-12-24T04:14:57;3.15;;;2.28;;
49962;SDS011;36180;57.678;11.910;2022-12-24T04:17:25;4.03;;;2.85;;
49962;SDS011;36180;57.678;11.910;2022-12-24T04:19:52;4.13;;;2.90;;
49962;SDS011;36180;57.678;11.910;2022-12-24T04:22:19;4.15;;;2.80;;
49962;SDS011;36180;57.678;11.910;2022-12-24T04:24:48;3.80;;;3.17;;
49962;SDS011;36180;57.678;11.910;2022-12-24T04:27:15;3.15;;;2.35;;
49962;SDS011;36180;57.678;11.910;2022-12-24T04:29:43;3.67;;;2.22;;
49962;SDS011;36180;57.678;11.910;2022-12-24T04:32:10;2.67;;;2.15;;
49962;SDS011;36180;57.678;11.910;2022-12-24T04:34:37;5.68;;;2.63;;
49962;SDS011;36180;57.678;11.910;2022-12-24T04:37:04;4.55;;;2.35;;
49962;SDS011;36180;57.678;11.910;2022-12-24T04:39:31;2.63;;;2.00;;
49962;SDS011;36180;57.678;11.910;2022-12-24T04:42:00;4.63;;;2.30;;
49962;SDS011;36180;57.678;11.910;2022-12-24T04:44:27;3.55;;;2.17;;
49962;SDS011;36180;57.678;11.910;2022-12-24T04:46:54;5.43;;;2.45;;
49962;SDS011;36180;57.678;11.910;2022-12-24T04:49:21;4.05;;;2.10;;
49962;SDS011;36180;57.678;11.910;2022-12-24T04:51:48;6.15;;;2.50;;
49962;SDS011;36180;57.678;11.910;2022-12-24T04:54:15;6.05;;;2.97;;
49962;SDS011;36180;57.678;11.910;2022-12-24T04:56:42;4.20;;;2.60;;
49962;SDS011;36180;57.678;11.910;2022-12-24T04:59:11;3.65;;;2.72;;
49962;SDS011;36180;57.678;11.910;2022-12-24T05:01:38;4.57;;;2.40;;
49962;SDS011;36180;57.678;11.910;2022-12-24T05:04:05;4.50;;;2.60;;
49962;SDS011;36180;57.678;11.910;2022-12-24T05:06:33;5.65;;;2.63;;
49962;SDS011;36180;57.678;11.910;2022-12-24T05:09:00;4.85;;;2.60;;
49962;SDS011;36180;57.678;11.910;2022-12-24T05:11:27;5.13;;;2.65;;
49962;SDS011;36180;57.678;11.910;2022-12-24T05:13:54;3.25;;;2.40;;
49962;SDS011;36180;57.678;11.910;2022-12-24T05:16:23;4.22;;;2.40;;
49962;SDS011;36180;57.678;11.910;2022-12-24T05:18:50;2.53;;;2.00;;
49962;SDS011;36180;57.678;11.910;2022-12-24T05:21:19;4.25;;;2.33;;
49962;SDS011;36180;57.678;11.910;2022-12-24T05:23:46;3.40;;;2.33;;
49962;SDS011;36180;57.678;11.910;2022-12-24T05:26:32;6.13;;;2.33;;
49962;SDS011;36180;57.678;11.910;2022-12-24T05:29:01;4.75;;;2.67;;
49962;SDS011;36180;57.678;11.910;2022-12-24T05:31:30;4.07;;;2.38;;
49962;SDS011;36180;57.678;11.910;2022-12-24T05:33:58;4.28;;;2.10;;
49962;SDS011;36180;57.678;11.910;2022-12-24T05:36:27;4.70;;;2.40;;
49962;SDS011;36180;57.678;11.910;2022-12-24T05:38:54;3.38;;;2.47;;
49962;SDS011;36180;57.678;11.910;2022-12-24T05:41:21;4.88;;;2.53;;
49962;SDS011;36180;57.678;11.910;2022-12-24T05:43:48;3.65;;;2.35;;
49962;SDS011;36180;57.678;11.910;2022-12-24T05:46:16;4.05;;;2.10;;
49962;SDS011;36180;57.678;11.910;2022-12-24T05:48:46;2.72;;;1.83;;
49962;SDS011;36180;57.678;11.910;2022-12-24T05:51:14;2.92;;;2.00;;
49962;SDS011;36180;57.678;11.910;2022-12-24T05:53:43;4.75;;;1.70;;
49962;SDS011;36180;57.678;11.910;2022-12-24T05:56:13;3.03;;;1.77;;
49962;SDS011;36180;57.678;11.910;2022-12-24T05:58:41;2.55;;;1.70;;
49962;SDS011;36180;57.678;11.910;2022-12-24T06:01:08;2.25;;;1.80;;
49962;SDS011;36180;57.678;11.910;2022-12-24T06:03:36;2.75;;;1.65;;
49962;SDS011;36180;57.678;11.910;2022-12-24T06:06:06;2.40;;;1.48;;
49962;SDS011;36180;57.678;11.910;2022-12-24T06:08:35;2.25;;;1.80;;
49962;SDS011;36180;57.678;11.910;2022-12-24T06:11:04;2.80;;;1.42;;
49962;SDS011;36180;57.678;11.910;2022-12-24T06:13:32;1.63;;;1.52;;
49962;SDS011;36180;57.678;11.910;2022-12-24T06:16:00;2.28;;;1.63;;
49962;SDS011;36180;57.678;11.910;2022-12-24T06:18:28;2.03;;;1.42;;
49962;SDS011;36180;57.678;11.910;2022-12-24T06:20:56;2.85;;;1.40;;
49962;SDS011;36180;57.678;11.910;2022-12-24T06:23:25;3.38;;;1.70;;
49962;SDS011;36180;57.678;11.910;2022-12-24T06:25:55;2.63;;;1.80;;
49962;SDS011;36180;57.678;11.910;2022-12-24T06:28:22;2.58;;;1.60;;
49962;SDS011;36180;57.678;11.910;2022-12-24T06:30:50;4.90;;;1.88;;
49962;SDS011;36180;57.678;11.910;2022-12-24T06:33:17;1.92;;;1.73;;
49962;SDS011;36180;57.678;11.910;2022-12-24T06:35:45;4.28;;;1.85;;
49962;SDS011;36180;57.678;11.910;2022-12-24T06:38:12;2.03;;;1.80;;
49962;SDS011;36180;57.678;11.910;2022-12-24T06:40:42;1.92;;;1.60;;
49962;SDS011;36180;57.678;11.910;2022-12-24T06:43:10;2.33;;;1.58;;
49962;SDS011;36180;57.678;11.910;2022-12-24T06:45:37;2.33;;;1.50;;
49962;SDS011;36180;57.678;11.910;2022-12-24T06:48:05;2.60;;;1.67;;
49962;SDS011;36180;57.678;11.910;2022-12-24T06:50:32;2.38;;;1.75;;
49962;SDS011;36180;57.678;11.910;2022-12-24T06:52:59;1.65;;;1.42;;
49962;SDS011;36180;57.678;11.910;2022-12-24T06:55:26;2.60;;;1.80;;
49962;SDS011;36180;57.678;11.910;2022-12-24T06:57:55;3.13;;;1.58;;
49962;SDS011;36180;57.678;11.910;2022-12-24T07:00:22;2.90;;;1.80;;
49962;SDS011;36180;57.678;11.910;2022-12-24T07:02:49;3.50;;;1.48;;
49962;SDS011;36180;57.678;11.910;2022-12-24T07:05:16;3.83;;;1.58;;
49962;SDS011;36180;57.678;11.910;2022-12-24T07:07:44;1.90;;;1.65;;
49962;SDS011;36180;57.678;11.910;2022-12-24T07:10:12;2.50;;;1.55;;
49962;SDS011;36180;57.678;11.910;2022-12-24T07:12:40;2.42;;;1.65;;
49962;SDS011;36180;57.678;11.910;2022-12-24T07:15:09;2.30;;;1.58;;
49962;SDS011;36180;57.678;11.910;2022-12-24T07:17:37;2.33;;;1.80;;
49962;SDS011;36180;57.678;11.910;2022-12-24T07:20:05;3.80;;;1.88;;
49962;SDS011;36180;57.678;11.910;2022-12-24T07:22:33;2.80;;;1.60;;
49962;SDS011;36180;57.678;11.910;2022-12-24T07:25:01;2.60;;;1.70;;
49962;SDS011;36180;57.678;11.910;2022-12-24T07:27:28;2.50;;;1.70;;
49962;SDS011;36180;57.678;11.910;2022-12-24T07:29:56;2.17;;;1.58;;
49962;SDS011;36180;57.678;11.910;2022-12-24T07:32:24;2.38;;;1.77;;
49962;SDS011;36180;57.678;11.910;2022-12-24T07:34:51;3.55;;;1.60;;
49962;SDS011;36180;57.678;11.910;2022-12-24T07:37:18;2.28;;;1.67;;
49962;SDS011;36180;57.678;11.910;2022-12-24T07:39:45;1.60;;;1.50;;
49962;SDS011;36180;57.678;11.910;2022-12-24T07:42:12;3.47;;;1.80;;
49962;SDS011;36180;57.678;11.910;2022-12-24T07:44:41;3.75;;;2.10;;
49962;SDS011;36180;57.678;11.910;2022-12-24T07:47:10;2.85;;;1.70;;
49962;SDS011;36180;57.678;11.910;2022-12-24T07:49:39;2.85;;;2.05;;
49962;SDS011;36180;57.678;11.910;2022-12-24T07:52:06;5.32;;;2.10;;
49962;SDS011;36180;57.678;11.910;2022-12-24T07:54:33;4.05;;;2.60;;
49962;SDS011;36180;57.678;11.910;2022-12-24T07:57:00;6.03;;;3.40;;
49962;SDS011;36180;57.678;11.910;2022-12-24T07:59:27;6.75;;;3.72;;
49962;SDS011;36180;57.678;11.910;2022-12-24T08:01:54;3.85;;;2.50;;
49962;SDS011;36180;57.678;11.910;2022-12-24T08:04:21;4.07;;;2.50;;
49962;SDS011;36180;57.678;11.910;2022-12-24T08:06:50;5.22;;;2.35;;
49962;SDS011;36180;57.678;11.910;2022-12-24T08:09:17;4.80;;;2.33;;
49962;SDS011;36180;57.678;11.910;2022-12-24T08:11:44;4.25;;;2.10;;
49962;SDS011;36180;57.678;11.910;2022-12-24T08:14:11;2.95;;;2.15;;
49962;SDS011;36180;57.678;11.910;2022-12-24T08:16:38;4.45;;;2.50;;
49962;SDS011;36180;57.678;11.910;2022-12-24T08:19:05;3.60;;;2.20;;
49962;SDS011;36180;57.678;11.910;2022-12-24T08:21:32;2.95;;;1.65;;
49962;SDS011;36180;57.678;11.910;2022-12-24T08:24:01;2.58;;;1.77;;
49962;SDS011;36180;57.678;11.910;2022-12-24T08:26:28;3.00;;;2.10;;
49962;SDS011;36180;57.678;11.910;2022-12-24T08:28:55;5.80;;;2.15;;
49962;SDS011;36180;57.678;11.910;2022-12-24T08:31:22;3.22;;;2.08;;
49962;SDS011;36180;57.678;11.910;2022-12-24T08:33:49;6.10;;;2.20;;
49962;SDS011;36180;57.678;11.910;2022-12-24T08:36:16;2.45;;;1.90;;
49962;SDS011;36180;57.678;11.910;2022-12-24T08:38:43;2.55;;;1.90;;
49962;SDS011;36180;57.678;11.910;2022-12-24T08:41:11;5.63;;;2.45;;
49962;SDS011;36180;57.678;11.910;2022-12-24T08:43:38;5.45;;;2.28;;
49962;SDS011;36180;57.678;11.910;2022-12-24T08:46:06;5.18;;;2.40;;
49962;SDS011;36180;57.678;11.910;2022-12-24T08:48:33;3.17;;;2.20;;
49962;SDS011;36180;57.678;11.910;2022-12-24T08:51:04;4.63;;;2.38;;
49962;SDS011;36180;57.678;11.910;2022-12-24T08:53:32;3.45;;;2.03;;
49962;SDS011;36180;57.678;11.910;2022-12-24T08:56:00;4.28;;;2.40;;
49962;SDS011;36180;57.678;11.910;2022-12-24T08:58:29;5.22;;;2.95;;
49962;SDS011;36180;57.678;11.910;2022-12-24T09:00:57;4.18;;;2.60;;
49962;SDS011;36180;57.678;11.910;2022-12-24T09:03:24;6.82;;;4.40;;
49962;SDS011;36180;57.678;11.910;2022-12-24T09:05:52;10.60;;;5.80;;
49962;SDS011;36180;57.678;11.910;2022-12-24T09:08:19;5.20;;;3.47;;
49962;SDS011;36180;57.678;11.910;2022-12-24T09:10:46;4.63;;;2.60;;
49962;SDS011;36180;57.678;11.910;2022-12-24T09:13:14;5.13;;;2.90;;
49962;SDS011;36180;57.678;11.910;2022-12-24T09:15:42;4.75;;;2.90;;
49962;SDS011;36180;57.678;11.910;2022-12-24T09:18:18;3.92;;;2.75;;
49962;SDS011;36180;57.678;11.910;2022-12-24T09:20:45;3.75;;;2.90;;
49962;SDS011;36180;57.678;11.910;2022-12-24T09:23:12;8.20;;;2.97;;
49962;SDS011;36180;57.678;11.910;2022-12-24T09:25:40;4.85;;;2.92;;
49962;SDS011;36180;57.678;11.910;2022-12-24T09:28:07;4.97;;;3.15;;
49962;SDS011;36180;57.678;11.910;2022-12-24T09:30:34;4.68;;;2.53;;
49962;SDS011;36180;57.678;11.910;2022-12-24T09:33:03;3.40;;;1.85;;
49962;SDS011;36180;57.678;11.910;2022-12-24T09:35:30;2.85;;;1.58;;
49962;SDS011;36180;57.678;11.910;2022-12-24T09:37:57;2.58;;;1.65;;
49962;SDS011;36180;57.678;11.910;2022-12-24T09:40:29;2.22;;;1.75;;
49962;SDS011;36180;57.678;11.910;2022-12-24T09:43:02;3.10;;;1.83;;
49962;SDS011;36180;57.678;11.910;2022-12-24T09:45:32;2.38;;;1.63;;
49962;SDS011;36180;57.678;11.910;2022-12-24T09:48:03;3.33;;;1.70;;
49962;SDS011;36180;57.678;11.910;2022-12-24T09:50:35;2.67;;;1.60;;
49962;SDS011;36180;57.678;11.910;2022-12-24T09:53:09;2.88;;;2.03;;
49962;SDS011;36180;57.678;11.910;2022-12-24T09:55:42;3.85;;;1.88;;
49962;SDS011;36180;57.678;11.910;2022-12-24T09:58:13;1.98;;;1.50;;
49962;SDS011;36180;57.678;11.910;2022-12-24T10:00:44;2.50;;;1.52;;
49962;SDS011;36180;57.678;11.910;2022-12-24T10:03:14;1.77;;;1.58;;
49962;SDS011;36180;57.678;11.910;2022-12-24T10:05:43;3.70;;;1.67;;
49962;SDS011;36180;57.678;11.910;2022-12-24T10:08:16;3.33;;;1.80;;
49962;SDS011;36180;57.678;11.910;2022-12-24T10:10:50;3.45;;;2.10;;
49962;SDS011;36180;57.678;11.910;2022-12-24T10:13:22;2.70;;;1.60;;
49962;SDS011;36180;57.678;11.910;2022-12-24T10:15:59;3.42;;;2.03;;
49962;SDS011;36180;57.678;11.910;2022-12-24T10:18:32;2.95;;;2.10;;
49962;SDS011;36180;57.678;11.910;2022-12-24T10:21:04;4.40;;;2.03;;
49962;SDS011;36180;57.678;11.910;2022-12-24T10:23:37;2.72;;;1.80;;
49962;SDS011;36180;57.678;11.910;2022-12-24T10:26:10;3.72;;;1.45;;
49962;SDS011;36180;57.678;11.910;2022-12-24T10:28:41;2.00;;;1.60;;
49962;SDS011;36180;57.678;11.910;2022-12-24T10:31:11;2.83;;;1.60;;
49962;SDS011;36180;57.678;11.910;2022-12-24T10:33:41;2.90;;;1.80;;
49962;SDS011;36180;57.678;11.910;2022-12-24T10:36:14;2.13;;;1.70;;
49962;SDS011;36180;57.678;11.910;2022-12-24T10:38:43;10.02;;;1.95;;
49962;SDS011;36180;57.678;11.910;2022-12-24T10:41:10;4.18;;;1.80;;
49962;SDS011;36180;57.678;11.910;2022-12-24T10:43:39;3.63;;;2.33;;
49962;SDS011;36180;57.678;11.910;2022-12-24T10:46:16;2.05;;;1.85;;
49962;SDS011;36180;57.678;11.910;2022-12-24T10:48:47;2.17;;;1.63;;
49962;SDS011;36180;57.678;11.910;2022-12-24T10:51:19;2.80;;;2.03;;
49962;SDS011;36180;57.678;11.910;2022-12-24T10:53:50;3.80;;;2.13;;
49962;SDS011;36180;57.678;11.910;2022-12-24T10:56:20;3.13;;;2.00;;
49962;SDS011;36180;57.678;11.910;2022-12-24T10:58:50;2.88;;;1.60;;
49962;SDS011;36180;57.678;11.910;2022-12-24T11:01:17;1.90;;;1.70;;
49962;SDS011;36180;57.678;11.910;2022-12-24T11:03:46;4.13;;;2.20;;
49962;SDS011;36180;57.678;11.910;2022-12-24T11:06:26;3.03;;;2.22;;
49962;SDS011;36180;57.678;11.910;2022-12-24T11:08:53;6.90;;;4.40;;
49962;SDS011;36180;57.678;11.910;2022-12-24T11:11:20;5.72;;;3.60;;
49962;SDS011;36180;57.678;11.910;2022-12-24T11:13:51;2.90;;;2.00;;
49962;SDS011;36180;57.678;11.910;2022-12-24T11:16:21;3.22;;;2.05;;
49962;SDS011;36180;57.678;11.910;2022-12-24T11:18:53;3.60;;;2.47;;
49962;SDS011;36180;57.678;11.910;2022-12-24T11:21:22;3.92;;;2.22;;
49962;SDS011;36180;57.678;11.910;2022-12-24T11:23:52;3.55;;;2.15;;
49962;SDS011;36180;57.678;11.910;2022-12-24T11:26:21;7.45;;;4.40;;
49962;SDS011;36180;57.678;11.910;2022-12-24T11:29:08;4.75;;;3.22;;
49962;SDS011;36180;57.678;11.910;2022-12-24T11:31:40;2.95;;;2.60;;
49962;SDS011;36180;57.678;11.910;2022-12-24T11:34:20;4.30;;;2.92;;
49962;SDS011;36180;57.678;11.910;2022-12-24T11:36:52;3.70;;;2.70;;
49962;SDS011;36180;57.678;11.910;2022-12-24T11:39:20;2.65;;;2.20;;
49962;SDS011;36180;57.678;11.910;2022-12-24T11:41:48;3.42;;;2.60;;
49962;SDS011;36180;57.678;11.910;2022-12-24T11:44:21;3.90;;;2.33;;
49962;SDS011;36180;57.678;11.910;2022-12-24T11:46:51;6.82;;;2.90;;
49962;SDS011;36180;57.678;11.910;2022-12-24T11:49:23;3.05;;;2.30;;
49962;SDS011;36180;57.678;11.910;2022-12-24T11:54:49;6.88;;;2.92;;
49962;SDS011;36180;57.678;11.910;2022-12-24T11:57:31;5.50;;;3.20;;
49962;SDS011;36180;57.678;11.910;2022-12-24T12:00:04;5.00;;;2.85;;
49962;SDS011;36180;57.678;11.910;2022-12-24T12:02:35;5.47;;;3.47;;
49962;SDS011;36180;57.678;11.910;2022-12-24T12:05:07;4.18;;;2.70;;
49962;SDS011;36180;57.678;11.910;2022-12-24T12:10:04;2.53;;;2.28;;
49962;SDS011;36180;57.678;11.910;2022-12-24T12:12:34;2.72;;;1.90;;
49962;SDS011;36180;57.678;11.910;2022-12-24T12:15:05;2.75;;;2.30;;
49962;SDS011;36180;57.678;11.910;2022-12-24T12:17:38;4.65;;;2.10;;
49962;SDS011;36180;57.678;11.910;2022-12-24T12:20:10;3.45;;;2.30;;
49962;SDS011;36180;57.678;11.910;2022-12-24T12:22:42;4.83;;;2.80;;
49962;SDS011;36180;57.678;11.910;2022-12-24T12:25:16;8.90;;;2.97;;
49962;SDS011;36180;57.678;11.910;2022-12-24T12:27:48;5.88;;;3.78;;
49962;SDS011;36180;57.678;11.910;2022-12-24T12:30:18;2.80;;;2.30;;
49962;SDS011;36180;57.678;11.910;2022-12-24T12:32:47;2.65;;;2.20;;
49962;SDS011;36180;57.678;11.910;2022-12-24T12:35:22;3.33;;;2.38;;
49962;SDS011;36180;57.678;11.910;2022-12-24T12:37:53;3.95;;;2.50;;
49962;SDS011;36180;57.678;11.910;2022-12-24T12:40:28;2.42;;;2.20;;
49962;SDS011;36180;57.678;11.910;2022-12-24T12:43:04;5.75;;;2.97;;
49962;SDS011;36180;57.678;11.910;2022-12-24T12:45:41;7.13;;;3.80;;
49962;SDS011;36180;57.678;11.910;2022-12-24T12:48:20;5.03;;;2.53;;
49962;SDS011;36180;57.678;11.910;2022-12-24T12:51:07;3.13;;;2.33;;
49962;SDS011;36180;57.678;11.910;2022-12-24T12:53:40;3.97;;;3.10;;
49962;SDS011;36180;57.678;11.910;2022-12-24T12:56:19;3.63;;;2.60;;
49962;SDS011;36180;57.678;11.910;2022-12-24T12:58:52;3.92;;;2.63;;
49962;SDS011;36180;57.678;11.910;2022-12-24T13:01:25;3.70;;;2.63;;
49962;SDS011;36180;57.678;11.910;2022-12-24T13:06:41;3.65;;;2.40;;
49962;SDS011;36180;57.678;11.910;2022-12-24T13:12:31;3.88;;;2.00;;
49962;SDS011;36180;57.678;11.910;2022-12-24T13:15:14;3.75;;;2.25;;
49962;SDS011;36180;57.678;11.910;2022-12-24T13:18:03;2.63;;;2.40;;
49962;SDS011;36180;57.678;11.910;2022-12-24T13:20:53;4.07;;;2.45;;
49962;SDS011;36180;57.678;11.910;2022-12-24T13:23:23;3.50;;;2.53;;
49962;SDS011;36180;57.678;11.910;2022-12-24T13:25:51;3.40;;;2.40;;
49962;SDS011;36180;57.678;11.910;2022-12-24T13:28:32;3.17;;;2.03;;
49962;SDS011;36180;57.678;11.910;2022-12-24T13:33:53;3.45;;;2.40;;
49962;SDS011;36180;57.678;11.910;2022-12-24T13:36:21;3.60;;;2.55;;
49962;SDS011;36180;57.678;11.910;2022-12-24T13:38:51;5.93;;;2.95;;
49962;SDS011;36180;57.678;11.910;2022-12-24T13:44:16;3.70;;;2.60;;
49962;SDS011;36180;57.678;11.910;2022-12-24T13:46:45;4.30;;;2.97;;
49962;SDS011;36180;57.678;11.910;2022-12-24T13:51:45;4.95;;;3.20;;
49962;SDS011;36180;57.678;11.910;2022-12-24T13:54:14;5.97;;;3.72;;
49962;SDS011;36180;57.678;11.910;2022-12-24T13:56:45;4.53;;;3.60;;
49962;SDS011;36180;57.678;11.910;2022-12-24T13:59:18;5.03;;;3.58;;
49962;SDS011;36180;57.678;11.910;2022-12-24T14:01:51;6.50;;;4.50;;
49962;SDS011;36180;57.678;11.910;2022-12-24T14:04:23;6.28;;;3.95;;
49962;SDS011;36180;57.678;11.910;2022-12-24T14:06:52;4.85;;;3.70;;
49962;SDS011;36180;57.678;11.910;2022-12-24T14:09:21;3.97;;;2.55;;
49962;SDS011;36180;57.678;11.910;2022-12-24T14:14:56;4.25;;;3.00;;
49962;SDS011;36180;57.678;11.910;2022-12-24T14:17:23;3.72;;;2.47;;
49962;SDS011;36180;57.678;11.910;2022-12-24T14:19:52;2.80;;;2.50;;
49962;SDS011;36180;57.678;11.910;2022-12-24T14:22:26;5.40;;;3.80;;
49962;SDS011;36180;57.678;11.910;2022-12-24T14:25:00;2.75;;;2.30;;
49962;SDS011;36180;57.678;11.910;2022-12-24T14:27:31;5.85;;;3.20;;
49962;SDS011;36180;57.678;11.910;2022-12-24T14:30:01;6.60;;;4.33;;
49962;SDS011;36180;57.678;11.910;2022-12-24T14:32:32;4.55;;;3.65;;
49962;SDS011;36180;57.678;11.910;2022-12-24T14:35:04;3.83;;;2.53;;
49962;SDS011;36180;57.678;11.910;2022-12-24T14:37:33;5.38;;;2.33;;
49962;SDS011;36180;57.678;11.910;2022-12-24T14:40:02;4.40;;;2.83;;
49962;SDS011;36180;57.678;11.910;2022-12-24T14:42:33;3.17;;;2.13;;
49962;SDS011;36180;57.678;11.910;2022-12-24T14:45:07;4.60;;;2.58;;
49962;SDS011;36180;57.678;11.910;2022-12-24T14:47:42;3.78;;;2.15;;
49962;SDS011;36180;57.678;11.910;2022-12-24T14:50:22;5.70;;;2.70;;
49962;SDS011;36180;57.678;11.910;2022-12-24T14:53:06;4.43;;;2.47;;
49962;SDS011;36180;57.678;11.910;2022-12-24T14:55:44;5.85;;;3.08;;
49962;SDS011;36180;57.678;11.910;2022-12-24T15:00:56;5.93;;;3.10;;
49962;SDS011;36180;57.678;11.910;2022-12-24T15:03:24;5.13;;;3.10;;
49962;SDS011;36180;57.678;11.910;2022-12-24T15:05:53;4.03;;;2.95;;
49962;SDS011;36180;57.678;11.910;2022-12-24T15:08:26;4.82;;;3.17;;
49962;SDS011;36180;57.678;11.910;2022-12-24T15:10:58;5.05;;;3.15;;
49962;SDS011;36180;57.678;11.910;2022-12-24T15:13:28;3.25;;;2.58;;